createdAt,value
2023-03-19T00:00:27.550Z,13.90
2023-03-19T00:02:54.762Z,13.90
2023-03-19T00:05:21.582Z,13.90
2023-03-19T00:07:48.365Z,13.90
2023-03-19T00:10:15.164Z,13.90
2023-03-19T00:12:41.937Z,13.70
2023-03-19T00:15:13.826Z,13.80
2023-03-19T00:17:41.665Z,13.90
2023-03-19T00:20:09.465Z,13.90
2023-03-19T00:22:36.347Z,13.80
2023-03-19T00:25:03.619Z,13.80
2023-03-19T00:27:30.527Z,13.80
2023-03-19T00:29:57.270Z,13.80
2023-03-19T00:32:23.898Z,13.80
2023-03-19T00:34:50.889Z,13.80
2023-03-19T00:37:18.206Z,13.80
2023-03-19T00:39:44.959Z,13.90
2023-03-19T00:42:11.960Z,13.90
2023-03-19T00:44:38.609Z,13.90
2023-03-19T00:47:06.862Z,13.90
2023-03-19T00:49:33.630Z,13.90
2023-03-19T00:52:00.357Z,13.90
2023-03-19T00:54:27.444Z,13.90
2023-03-19T00:56:54.182Z,13.90
2023-03-19T00:59:20.946Z,13.90
2023-03-19T01:01:47.773Z,13.90
2023-03-19T01:04:15.297Z,13.90
2023-03-19T01:06:42.154Z,13.90
2023-03-19T01:09:10.585Z,13.90
2023-03-19T01:11:37.301Z,14.00
2023-03-19T01:14:04.179Z,14.00
2023-03-19T01:16:30.953Z,14.00
2023-03-19T01:18:58.407Z,14.00
2023-03-19T01:21:25.709Z,14.00
2023-03-19T01:23:52.380Z,14.00
2023-03-19T01:26:20.713Z,14.00
2023-03-19T01:28:49.710Z,14.00
2023-03-19T01:31:19.915Z,14.00
2023-03-19T01:33:55.789Z,14.00
2023-03-19T01:36:36.574Z,14.00
2023-03-19T01:39:05.960Z,14.00
2023-03-19T01:41:32.702Z,14.00
2023-03-19T01:44:31.888Z,14.00
2023-03-19T01:47:32.639Z,14.00
2023-03-19T01:50:30.115Z,14.00
2023-03-19T01:53:18.977Z,14.00
2023-03-19T01:55:49.984Z,14.00
2023-03-19T01:58:32.863Z,14.00
2023-03-19T02:01:30.155Z,14.00
2023-03-19T02:03:57.946Z,14.00
2023-03-19T02:06:30.115Z,14.00
2023-03-19T02:08:58.617Z,14.00
2023-03-19T02:11:26.242Z,14.00
2023-03-19T02:13:53.324Z,14.00
2023-03-19T02:16:20.322Z,14.00
2023-03-19T02:18:48.112Z,14.00
2023-03-19T02:21:19.907Z,13.90
2023-03-19T02:24:14.163Z,14.00
2023-03-19T02:26:51.493Z,14.00
2023-03-19T02:29:18.433Z,14.00
2023-03-19T02:31:46.116Z,14.00
2023-03-19T02:34:18.994Z,14.00
2023-03-19T02:36:52.085Z,13.90
2023-03-19T02:39:31.564Z,13.90
2023-03-19T02:41:59.097Z,13.90
2023-03-19T02:44:27.259Z,13.90
2023-03-19T02:46:54.104Z,13.90
2023-03-19T02:49:20.808Z,13.90
2023-03-19T02:51:47.628Z,13.90
2023-03-19T02:54:14.254Z,13.90
2023-03-19T02:56:41.141Z,13.90
2023-03-19T02:59:07.777Z,13.90
2023-03-19T03:01:34.646Z,13.80
2023-03-19T03:04:01.438Z,13.80
2023-03-19T03:06:28.463Z,13.80
2023-03-19T03:08:55.176Z,13.80
2023-03-19T03:11:22.737Z,13.80
2023-03-19T03:13:49.689Z,13.80
2023-03-19T03:16:17.274Z,13.80
2023-03-19T03:18:44.444Z,13.80
2023-03-19T03:21:11.656Z,13.80
2023-03-19T03:23:38.362Z,13.80
2023-03-19T03:26:06.671Z,13.80
2023-03-19T03:28:33.374Z,13.70
2023-03-19T03:31:02.141Z,13.70
2023-03-19T03:33:29.209Z,13.70
2023-03-19T03:35:56.599Z,13.70
2023-03-19T03:38:23.528Z,13.70
2023-03-19T03:40:52.498Z,13.70
2023-03-19T03:43:21.789Z,13.70
2023-03-19T03:45:49.153Z,13.70
2023-03-19T03:48:17.359Z,13.70
2023-03-19T03:50:44.077Z,13.70
2023-03-19T03:53:15.960Z,13.70
2023-03-19T03:55:42.942Z,13.60
2023-03-19T03:58:10.560Z,13.70
2023-03-19T04:00:37.279Z,13.70
2023-03-19T04:03:04.120Z,13.70
2023-03-19T04:05:30.983Z,13.70
2023-03-19T04:07:58.481Z,13.70
2023-03-19T04:10:25.854Z,13.70
2023-03-19T04:12:52.623Z,13.70
2023-03-19T04:15:20.176Z,13.70
2023-03-19T04:17:48.033Z,13.70
2023-03-19T04:20:18.564Z,13.60
2023-03-19T04:22:45.754Z,13.70
2023-03-19T04:25:12.508Z,13.70
2023-03-19T04:27:40.175Z,13.70
2023-03-19T04:30:09.812Z,13.70
2023-03-19T04:32:37.188Z,13.70
2023-03-19T04:35:04.276Z,13.70
2023-03-19T04:37:31.307Z,13.70
2023-03-19T04:39:58.150Z,13.70
2023-03-19T04:42:25.002Z,13.70
2023-03-19T04:45:02.781Z,13.70
2023-03-19T04:47:29.592Z,13.70
2023-03-19T04:49:58.970Z,13.70
2023-03-19T04:52:26.315Z,13.70
2023-03-19T04:54:54.206Z,13.70
2023-03-19T04:57:21.407Z,13.70
2023-03-19T04:59:49.710Z,13.70
2023-03-19T05:02:17.165Z,13.70
2023-03-19T05:04:44.771Z,13.70
2023-03-19T05:07:13.865Z,13.70
2023-03-19T05:09:43.912Z,13.70
2023-03-19T05:12:12.263Z,13.70
2023-03-19T05:14:44.348Z,13.70
2023-03-19T05:17:31.073Z,13.70
2023-03-19T05:20:14.292Z,13.70
2023-03-19T05:22:47.589Z,13.70
2023-03-19T05:25:16.401Z,13.70
2023-03-19T05:27:44.695Z,13.70
2023-03-19T05:30:18.363Z,13.70
2023-03-19T05:33:01.348Z,13.70
2023-03-19T05:35:40.933Z,13.70
2023-03-19T05:38:15.693Z,13.70
2023-03-19T05:40:45.598Z,13.70
2023-03-19T05:43:22.451Z,13.70
2023-03-19T05:45:52.368Z,13.70
2023-03-19T05:48:23.435Z,13.70
2023-03-19T05:50:50.957Z,13.70
2023-03-19T05:53:20.766Z,13.70
2023-03-19T05:56:04.213Z,13.70
2023-03-19T05:58:36.806Z,13.70
2023-03-19T06:01:04.867Z,13.70
2023-03-19T06:03:32.580Z,13.70
2023-03-19T06:06:04.946Z,13.70
2023-03-19T06:08:42.975Z,13.70
2023-03-19T06:11:20.382Z,13.70
2023-03-19T06:13:53.924Z,13.70
2023-03-19T06:16:21.361Z,13.70
2023-03-19T06:18:52.173Z,13.70
2023-03-19T06:21:19.555Z,13.70
2023-03-19T06:23:46.178Z,13.70
2023-03-19T06:26:17.254Z,13.70
2023-03-19T06:28:50.691Z,13.70
2023-03-19T06:31:18.288Z,13.70
2023-03-19T06:33:57.020Z,13.80
2023-03-19T06:36:29.899Z,13.80
2023-03-19T06:38:56.958Z,13.70
2023-03-19T06:41:25.040Z,13.80
2023-03-19T06:43:53.193Z,13.80
2023-03-19T06:46:19.974Z,13.80
2023-03-19T06:48:46.652Z,13.90
2023-03-19T06:51:13.270Z,13.90
2023-03-19T06:53:41.216Z,13.90
2023-03-19T06:56:07.903Z,13.90
2023-03-19T06:58:36.228Z,14.00
2023-03-19T07:01:03.776Z,14.10
2023-03-19T07:03:30.861Z,14.10
2023-03-19T07:05:57.709Z,14.20
2023-03-19T07:08:27.775Z,14.20
2023-03-19T07:10:54.467Z,14.30
2023-03-19T07:13:21.214Z,14.30
2023-03-19T07:15:48.218Z,14.40
2023-03-19T07:18:14.838Z,14.40
2023-03-19T07:20:41.484Z,14.40
2023-03-19T07:23:08.099Z,14.50
2023-03-19T07:25:34.823Z,14.50
2023-03-19T07:28:01.433Z,14.60
2023-03-19T07:30:28.254Z,14.60
2023-03-19T07:32:55.433Z,14.70
2023-03-19T07:35:22.161Z,14.70
2023-03-19T07:37:48.950Z,14.90
2023-03-19T07:40:15.948Z,15.10
2023-03-19T07:42:45.021Z,15.30
2023-03-19T07:45:12.998Z,15.50
2023-03-19T07:47:40.158Z,15.70
2023-03-19T07:50:07.489Z,15.90
2023-03-19T07:52:34.301Z,16.00
2023-03-19T07:55:01.453Z,16.10
2023-03-19T07:57:28.422Z,16.10
2023-03-19T07:59:55.156Z,16.20
2023-03-19T08:02:23.573Z,16.20
2023-03-19T08:04:50.587Z,16.40
2023-03-19T08:07:17.337Z,16.30
2023-03-19T08:09:44.166Z,16.20
2023-03-19T08:12:11.027Z,16.30
2023-03-19T08:14:37.713Z,16.30
2023-03-19T08:17:05.127Z,16.30
2023-03-19T08:19:32.559Z,16.30
2023-03-19T08:21:59.263Z,16.30
2023-03-19T08:24:25.998Z,16.30
2023-03-19T08:26:52.686Z,16.40
2023-03-19T08:29:19.390Z,16.40
2023-03-19T08:31:46.410Z,16.40
2023-03-19T08:34:13.215Z,16.40
2023-03-19T08:36:39.954Z,16.40
2023-03-19T08:39:06.674Z,16.40
2023-03-19T08:41:33.452Z,16.40
2023-03-19T08:44:00.580Z,16.40
2023-03-19T08:46:27.778Z,16.40
2023-03-19T08:48:54.700Z,16.40
2023-03-19T08:51:21.954Z,16.40
2023-03-19T08:53:48.610Z,16.40
2023-03-19T08:56:15.386Z,16.50
2023-03-19T08:58:42.672Z,16.50
2023-03-19T09:01:12.591Z,16.60
2023-03-19T09:03:40.142Z,16.70
2023-03-19T09:06:09.504Z,16.80
2023-03-19T09:08:37.181Z,16.90
2023-03-19T09:11:05.039Z,17.10
2023-03-19T09:13:32.427Z,17.30
2023-03-19T09:15:59.200Z,17.60
2023-03-19T09:18:26.022Z,17.60
2023-03-19T09:20:53.949Z,17.80
2023-03-19T09:23:21.593Z,17.90
2023-03-19T09:25:49.131Z,17.90
2023-03-19T09:28:16.436Z,17.90
2023-03-19T09:30:45.487Z,17.90
2023-03-19T09:33:12.289Z,17.90
2023-03-19T09:35:39.893Z,17.90
2023-03-19T09:38:06.984Z,17.80
2023-03-19T09:40:44.206Z,17.80
2023-03-19T09:43:27.324Z,17.70
2023-03-19T09:45:54.341Z,17.60
2023-03-19T09:48:40.792Z,17.60
2023-03-19T09:51:14.761Z,17.60
2023-03-19T09:54:01.399Z,17.50
2023-03-19T09:56:28.249Z,17.60
2023-03-19T09:58:55.111Z,17.70
2023-03-19T10:01:37.149Z,17.80
2023-03-19T10:04:24.862Z,17.90
2023-03-19T10:06:59.427Z,18.10
2023-03-19T10:09:33.408Z,18.30
2023-03-19T10:12:28.077Z,18.50
2023-03-19T10:15:30.922Z,18.80
2023-03-19T10:17:58.098Z,19.10
2023-03-19T10:21:11.142Z,19.30
2023-03-19T10:23:42.823Z,19.50
2023-03-19T10:26:13.377Z,19.70
2023-03-19T10:28:43.725Z,19.70
2023-03-19T10:31:40.500Z,19.80
2023-03-19T10:34:31.389Z,19.70
2023-03-19T10:37:04.635Z,19.70
2023-03-19T10:39:34.586Z,19.70
2023-03-19T10:42:18.205Z,19.60
2023-03-19T10:44:52.521Z,19.50
2023-03-19T10:47:20.237Z,19.50
2023-03-19T10:49:46.943Z,19.40
2023-03-19T10:52:18.349Z,19.40
2023-03-19T10:54:45.848Z,19.40
2023-03-19T10:57:43.309Z,19.30
2023-03-19T11:00:22.642Z,19.30
2023-03-19T11:02:54.585Z,19.30
2023-03-19T11:05:21.138Z,19.30
2023-03-19T11:07:56.461Z,19.30
2023-03-19T11:10:25.539Z,19.30
2023-03-19T11:12:57.858Z,19.50
2023-03-19T11:15:32.747Z,19.30
2023-03-19T11:18:06.618Z,19.30
2023-03-19T11:20:38.445Z,19.30
2023-03-19T11:23:15.695Z,19.20
2023-03-19T11:25:49.553Z,19.20
2023-03-19T11:28:21.800Z,19.10
2023-03-19T11:31:09.332Z,19.10
2023-03-19T11:33:37.796Z,19.10
2023-03-19T11:36:39.160Z,19.10
2023-03-19T11:39:28.430Z,19.10
2023-03-19T11:42:29.416Z,19.10
2023-03-19T11:45:08.197Z,19.20
2023-03-19T11:47:40.761Z,19.20
2023-03-19T11:50:54.272Z,19.20
2023-03-19T11:53:41.780Z,19.20
2023-03-19T11:56:37.762Z,19.20
2023-03-19T11:59:48.162Z,19.20
2023-03-19T12:02:53.938Z,19.20
2023-03-19T12:05:27.505Z,19.20
2023-03-19T12:07:59.256Z,19.20
2023-03-19T12:10:50.877Z,19.20
2023-03-19T12:13:34.111Z,19.20
2023-03-19T12:16:13.493Z,19.20
2023-03-19T12:19:17.807Z,19.20
2023-03-19T12:22:16.524Z,19.20
2023-03-19T12:24:58.712Z,19.20
2023-03-19T12:27:32.252Z,19.20
2023-03-19T12:30:09.220Z,19.20
2023-03-19T12:33:03.300Z,19.10
2023-03-19T12:35:35.801Z,19.10
2023-03-19T12:38:10.717Z,19.10
2023-03-19T12:40:54.661Z,19.10
2023-03-19T12:43:29.501Z,19.10
2023-03-19T12:46:16.554Z,19.00
2023-03-19T12:49:11.120Z,19.10
2023-03-19T12:51:45.449Z,19.00
2023-03-19T12:54:28.348Z,19.00
2023-03-19T12:57:00.307Z,19.00
2023-03-19T12:59:44.479Z,19.00
2023-03-19T13:02:47.428Z,19.00
2023-03-19T13:05:41.565Z,18.90
2023-03-19T13:08:20.871Z,18.90
2023-03-19T13:10:47.599Z,18.90
2023-03-19T13:13:39.565Z,18.80
2023-03-19T13:16:30.734Z,18.80
2023-03-19T13:19:10.392Z,18.80
2023-03-19T13:21:39.729Z,18.80
2023-03-19T13:24:30.887Z,18.90
2023-03-19T13:27:00.998Z,18.90
2023-03-19T13:29:32.140Z,18.90
2023-03-19T13:32:06.744Z,19.00
2023-03-19T13:34:37.967Z,19.00
2023-03-19T13:37:13.145Z,19.00
2023-03-19T13:39:41.957Z,19.10
2023-03-19T13:42:42.520Z,19.10
2023-03-19T13:45:36.613Z,19.10
2023-03-19T13:48:29.952Z,19.10
2023-03-19T13:51:03.202Z,19.10
2023-03-19T13:53:37.978Z,19.20
2023-03-19T13:56:22.490Z,19.20
2023-03-19T13:59:32.049Z,19.20
2023-03-19T14:02:00.181Z,19.30
2023-03-19T14:04:30.712Z,19.30
2023-03-19T14:07:17.194Z,19.40
2023-03-19T14:09:48.505Z,19.50
2023-03-19T14:12:18.150Z,19.40
2023-03-19T14:14:58.141Z,19.40
2023-03-19T14:17:42.058Z,19.40
2023-03-19T14:20:17.248Z,19.40
2023-03-19T14:23:08.988Z,19.40
2023-03-19T14:25:56.903Z,19.40
2023-03-19T14:28:50.092Z,19.50
2023-03-19T14:31:36.993Z,19.40
2023-03-19T14:34:26.481Z,19.40
2023-03-19T14:37:16.142Z,19.40
2023-03-19T14:39:44.754Z,19.40
2023-03-19T14:42:19.311Z,19.40
2023-03-19T14:44:57.943Z,19.30
2023-03-19T14:47:41.728Z,19.30
2023-03-19T14:50:17.380Z,19.30
2023-03-19T14:52:52.064Z,19.30
2023-03-19T14:55:18.849Z,19.30
2023-03-19T14:57:45.776Z,19.20
2023-03-19T15:00:18.208Z,19.20
2023-03-19T15:02:44.961Z,19.20
2023-03-19T15:05:21.275Z,19.20
2023-03-19T15:07:49.756Z,19.20
2023-03-19T15:10:23.397Z,19.20
2023-03-19T15:13:03.961Z,19.20
2023-03-19T15:16:01.243Z,19.20
2023-03-19T15:18:28.555Z,19.20
2023-03-19T15:20:56.640Z,19.20
2023-03-19T15:23:28.378Z,19.20
2023-03-19T15:26:03.529Z,19.20
2023-03-19T15:28:32.299Z,19.10
2023-03-19T15:31:22.175Z,19.10
2023-03-19T15:33:50.906Z,19.10
2023-03-19T15:36:31.557Z,19.10
2023-03-19T15:39:05.347Z,19.10
2023-03-19T15:41:36.503Z,19.10
2023-03-19T15:44:07.044Z,19.10
2023-03-19T15:46:36.417Z,19.00
2023-03-19T15:49:10.896Z,19.00
2023-03-19T15:51:38.446Z,19.00
2023-03-19T15:54:05.536Z,19.00
2023-03-19T15:56:32.545Z,18.90
2023-03-19T15:58:59.855Z,18.90
2023-03-19T16:01:27.910Z,18.90
2023-03-19T16:04:05.973Z,18.80
2023-03-19T16:06:37.978Z,18.80
2023-03-19T16:09:25.917Z,18.80
2023-03-19T16:11:53.747Z,18.80
2023-03-19T16:14:40.468Z,18.80
2023-03-19T16:17:13.697Z,18.70
2023-03-19T16:19:52.052Z,18.70
2023-03-19T16:22:32.708Z,18.70
2023-03-19T16:25:01.845Z,18.70
2023-03-19T16:27:36.305Z,18.70
2023-03-19T16:30:14.672Z,18.70
2023-03-19T16:32:42.399Z,18.70
2023-03-19T16:35:20.880Z,18.70
2023-03-19T16:37:49.106Z,18.70
2023-03-19T16:40:15.974Z,18.70
2023-03-19T16:42:55.906Z,18.70
2023-03-19T16:45:30.436Z,18.70
2023-03-19T16:47:59.521Z,18.60
2023-03-19T16:50:38.037Z,18.60
2023-03-19T16:53:13.055Z,18.70
2023-03-19T16:55:40.101Z,18.60
2023-03-19T16:58:16.226Z,18.60
2023-03-19T17:00:44.637Z,18.60
2023-03-19T17:03:15.241Z,18.60
2023-03-19T17:05:42.849Z,18.50
2023-03-19T17:08:09.680Z,18.50
2023-03-19T17:10:40.042Z,18.50
2023-03-19T17:13:06.897Z,18.50
2023-03-19T17:15:36.972Z,18.40
2023-03-19T17:18:13.090Z,18.40
2023-03-19T17:20:51.545Z,18.40
2023-03-19T17:23:18.903Z,18.30
2023-03-19T17:25:45.725Z,18.30
2023-03-19T17:28:12.421Z,18.20
2023-03-19T17:30:39.597Z,18.20
2023-03-19T17:33:06.518Z,18.10
2023-03-19T17:35:34.146Z,18.10
2023-03-19T17:38:01.175Z,18.00
2023-03-19T17:40:28.302Z,17.90
2023-03-19T17:42:56.303Z,17.90
2023-03-19T17:45:29.624Z,17.80
2023-03-19T17:47:58.121Z,17.80
2023-03-19T17:50:28.374Z,17.70
2023-03-19T17:52:55.171Z,17.70
2023-03-19T17:55:24.699Z,17.60
2023-03-19T17:57:52.153Z,17.60
2023-03-19T18:00:22.194Z,17.50
2023-03-19T18:02:51.558Z,17.50
2023-03-19T18:05:23.947Z,17.40
2023-03-19T18:07:53.603Z,17.30
2023-03-19T18:10:30.218Z,17.30
2023-03-19T18:12:59.842Z,17.30
2023-03-19T18:15:29.668Z,17.20
2023-03-19T18:17:58.458Z,17.10
2023-03-19T18:20:28.253Z,17.10
2023-03-19T18:22:55.174Z,17.00
2023-03-19T18:25:24.974Z,17.00
2023-03-19T18:27:52.550Z,17.00
2023-03-19T18:30:22.710Z,16.90
2023-03-19T18:32:54.498Z,16.90
2023-03-19T18:35:28.832Z,16.80
2023-03-19T18:37:56.439Z,16.80
2023-03-19T18:40:26.533Z,16.70
2023-03-19T18:42:53.411Z,16.70
2023-03-19T18:45:20.564Z,16.60
2023-03-19T18:47:48.744Z,16.60
2023-03-19T18:50:25.321Z,16.60
2023-03-19T18:52:53.469Z,16.50
2023-03-19T18:55:23.053Z,16.50
2023-03-19T18:57:56.989Z,16.50
2023-03-19T19:00:29.413Z,16.50
2023-03-19T19:02:56.602Z,16.40
2023-03-19T19:05:28.087Z,16.40
2023-03-19T19:07:56.635Z,16.30
2023-03-19T19:10:30.962Z,16.30
2023-03-19T19:12:58.581Z,16.30
2023-03-19T19:15:30.183Z,16.20
2023-03-19T19:17:57.672Z,16.20
2023-03-19T19:20:26.920Z,16.10
2023-03-19T19:22:54.242Z,16.10
2023-03-19T19:25:27.205Z,16.10
2023-03-19T19:27:58.406Z,16.00
2023-03-19T19:30:25.333Z,16.00
2023-03-19T19:32:52.047Z,15.90
2023-03-19T19:35:23.123Z,15.90
2023-03-19T19:37:50.133Z,15.80
2023-03-19T19:40:22.484Z,15.80
2023-03-19T19:42:53.289Z,15.80
2023-03-19T19:45:26.362Z,15.70
2023-03-19T19:47:53.127Z,15.70
2023-03-19T19:50:22.004Z,15.70
2023-03-19T19:52:48.794Z,15.70
2023-03-19T19:55:16.626Z,15.60
2023-03-19T19:57:44.033Z,15.60
2023-03-19T20:00:22.858Z,15.60
2023-03-19T20:02:50.829Z,15.50
2023-03-19T20:05:26.546Z,15.50
2023-03-19T20:07:55.958Z,15.50
2023-03-19T20:10:25.441Z,15.40
2023-03-19T20:12:54.760Z,15.40
2023-03-19T20:15:25.082Z,15.40
2023-03-19T20:17:53.992Z,15.30
2023-03-19T20:20:29.593Z,15.30
2023-03-19T20:22:57.789Z,15.30
2023-03-19T20:25:27.728Z,15.20
2023-03-19T20:27:59.692Z,15.20
2023-03-19T20:30:30.492Z,15.10
2023-03-19T20:32:58.068Z,15.10
2023-03-19T20:35:30.626Z,15.10
2023-03-19T20:37:58.142Z,15.10
2023-03-19T20:40:52.439Z,15.00
2023-03-19T20:43:34.520Z,15.00
2023-03-19T20:46:04.757Z,14.90
2023-03-19T20:48:32.669Z,14.90
2023-03-19T20:51:01.433Z,14.90
2023-03-19T20:53:28.696Z,14.90
2023-03-19T20:55:55.428Z,14.80
2023-03-19T20:58:29.057Z,14.80
2023-03-19T21:00:57.752Z,14.80
2023-03-19T21:03:27.661Z,14.70
2023-03-19T21:06:17.947Z,14.70
2023-03-19T21:08:48.015Z,14.70
2023-03-19T21:11:20.580Z,14.60
2023-03-19T21:13:48.556Z,14.60
2023-03-19T21:16:20.831Z,14.50
2023-03-19T21:18:48.472Z,14.50
2023-03-19T21:21:16.761Z,14.50
2023-03-19T21:23:53.499Z,14.50
2023-03-19T21:26:23.524Z,14.40
2023-03-19T21:28:58.950Z,14.40
2023-03-19T21:31:26.053Z,14.40
2023-03-19T21:33:52.760Z,14.30
2023-03-19T21:36:19.514Z,14.30
2023-03-19T21:38:46.539Z,14.30
2023-03-19T21:41:35.709Z,14.20
2023-03-19T21:44:15.022Z,14.20
2023-03-19T21:46:44.391Z,14.20
2023-03-19T21:49:12.066Z,14.10
2023-03-19T21:51:38.862Z,14.10
2023-03-19T21:54:05.732Z,14.10
2023-03-19T21:56:40.883Z,14.00
2023-03-19T21:59:21.970Z,14.00
2023-03-19T22:01:48.827Z,14.00
2023-03-19T22:04:15.741Z,13.90
2023-03-19T22:06:42.952Z,13.90
2023-03-19T22:09:09.648Z,13.90
2023-03-19T22:11:38.336Z,13.80
2023-03-19T22:14:18.890Z,13.80
2023-03-19T22:16:46.952Z,13.80
2023-03-19T22:19:15.749Z,13.70
2023-03-19T22:21:42.405Z,13.70
2023-03-19T22:24:09.048Z,13.60
2023-03-19T22:26:38.626Z,13.60
2023-03-19T22:29:19.224Z,13.50
2023-03-19T22:31:49.004Z,13.50
2023-03-19T22:34:17.732Z,13.60
2023-03-19T22:36:44.606Z,13.40
2023-03-19T22:39:11.479Z,13.40
2023-03-19T22:41:42.517Z,13.30
2023-03-19T22:44:19.256Z,13.30
2023-03-19T22:46:46.532Z,13.20
2023-03-19T22:49:15.304Z,13.20
2023-03-19T22:51:42.114Z,13.20
2023-03-19T22:54:11.042Z,13.20
2023-03-19T22:56:37.981Z,13.10
2023-03-19T22:59:04.948Z,13.10
2023-03-19T23:01:46.593Z,13.10
2023-03-19T23:04:19.525Z,13.00
2023-03-19T23:06:46.917Z,13.00
2023-03-19T23:09:35.635Z,13.00
2023-03-19T23:12:03.059Z,12.90
2023-03-19T23:14:31.289Z,12.90
2023-03-19T23:17:04.134Z,12.90
2023-03-19T23:19:32.066Z,12.80
2023-03-19T23:22:00.321Z,12.80
2023-03-19T23:24:27.889Z,12.80
2023-03-19T23:26:56.720Z,12.80
2023-03-19T23:29:29.375Z,12.70
2023-03-19T23:31:58.520Z,12.70
2023-03-19T23:34:26.611Z,12.70
2023-03-19T23:36:53.500Z,12.70
2023-03-19T23:39:21.037Z,12.70
2023-03-19T23:41:49.697Z,12.70
2023-03-19T23:44:19.329Z,12.70
2023-03-19T23:46:49.249Z,12.70
2023-03-19T23:49:27.132Z,12.70
2023-03-19T23:51:53.770Z,12.70
2023-03-19T23:54:31.447Z,12.70
2023-03-19T23:57:01.002Z,12.70
2023-03-19T23:59:32.443Z,12.80
